TJNR/NRR METAR and TAF weather

Enter ICAO airport designator
Station Type Date Time Source
TJNR METAR 2021/06/24 05:04 UTC NOAA

TJNR 240504Z AUTO 06008KT 10SM FEW021 SCT026 27/24 A3003 RMK AO2 T02670239


Station Type Date Time Source
TJNR Decoded METAR 2021/06/24 05:04 UTC NOAA

ROOSEVELT ROADS PUERTO RICO, PR, United States (TJNR) 18-15N 65-38W 10M
Jun 24, 2021 - 01:04 AM EDT / 2021.06.24 0504 UTC
Wind: from the ENE (060 degrees) at 9 MPH (8 KT):0
Visibility: 10 mile(s):0
Sky conditions: partly cloudy
Temperature: 80.1 F (26.7 C)
Dew Point: 75.0 F (23.9 C)
Relative Humidity: 84%
Pressure (altimeter): 30.03 in. Hg (1016 hPa)
ob: TJNR 240504Z AUTO 06008KT 10SM FEW021 SCT026 27/24 A3003 RMK AO2 T02670239
cycle: 5

Station Type Date Time Source
TJNR TAF UTC NOAA

Error!

Example: see airport list